createdAt,value
2023-02-17T06:30:53.083Z,2.67
2023-02-17T06:33:20.287Z,2.72
2023-02-17T06:35:51.380Z,3.05
2023-02-17T06:38:19.508Z,3.50
2023-02-17T06:40:46.821Z,2.97
2023-02-17T06:43:14.227Z,3.78
2023-02-17T06:45:41.990Z,2.95
2023-02-17T06:48:09.253Z,3.60
2023-02-17T06:50:37.010Z,3.17
2023-02-17T06:53:04.511Z,3.25
2023-02-17T06:55:35.333Z,2.80
2023-02-17T06:58:03.062Z,3.35
2023-02-17T07:00:30.529Z,2.80
2023-02-17T07:02:57.942Z,2.30
2023-02-17T07:05:25.768Z,2.45
2023-02-17T07:07:56.041Z,2.35
2023-02-17T07:10:30.619Z,2.60
2023-02-17T07:13:15.544Z,3.20
2023-02-17T07:15:48.629Z,2.65
2023-02-17T07:21:01.873Z,2.90
2023-02-17T07:23:33.085Z,2.55
2023-02-17T07:26:10.822Z,2.70
2023-02-17T07:28:48.854Z,2.42
2023-02-17T07:31:18.784Z,2.30
2023-02-17T07:33:51.382Z,1.92
2023-02-17T07:36:20.490Z,2.22
2023-02-17T07:38:51.058Z,2.00
2023-02-17T07:41:24.747Z,2.25
2023-02-17T07:43:55.249Z,1.77
2023-02-17T07:46:23.502Z,2.25
2023-02-17T07:48:51.142Z,2.05
2023-02-17T07:51:22.084Z,1.75
2023-02-17T07:53:51.157Z,2.20
2023-02-17T07:56:21.669Z,2.25
2023-02-17T07:58:49.279Z,2.17
2023-02-17T08:01:19.980Z,1.65
2023-02-17T08:03:48.581Z,1.55
2023-02-17T08:06:24.272Z,1.83
2023-02-17T08:09:11.521Z,2.25
2023-02-17T08:11:58.088Z,1.70
2023-02-17T08:14:27.989Z,1.45
2023-02-17T08:16:55.589Z,2.08
2023-02-17T08:19:23.129Z,1.50
2023-02-17T08:21:50.385Z,2.05
2023-02-17T08:24:19.589Z,1.77
2023-02-17T08:26:47.474Z,1.20
2023-02-17T08:29:15.195Z,1.45
2023-02-17T08:31:43.036Z,1.60
2023-02-17T08:34:12.592Z,1.83
2023-02-17T08:36:40.649Z,2.22
2023-02-17T08:39:12.128Z,1.60
2023-02-17T08:41:41.376Z,1.65
2023-02-17T08:44:15.663Z,2.42
2023-02-17T08:46:43.794Z,2.05
2023-02-17T08:49:11.496Z,1.60
2023-02-17T08:51:40.226Z,1.50
2023-02-17T08:54:08.819Z,1.25
2023-02-17T08:56:39.115Z,1.67
2023-02-17T08:59:09.857Z,1.50
2023-02-17T09:01:43.124Z,1.50
2023-02-17T09:04:14.060Z,1.23
2023-02-17T09:06:48.603Z,1.02
2023-02-17T09:09:19.985Z,1.00
2023-02-17T09:11:47.380Z,1.10
2023-02-17T09:14:15.213Z,1.20
2023-02-17T09:16:44.332Z,1.17
2023-02-17T09:19:11.825Z,1.10
2023-02-17T09:21:39.122Z,1.55
2023-02-17T09:24:06.573Z,1.23
2023-02-17T09:26:35.227Z,1.00
2023-02-17T09:29:06.516Z,1.17
2023-02-17T09:31:35.895Z,1.00
2023-02-17T09:34:04.871Z,0.90
2023-02-17T09:36:37.656Z,0.88
2023-02-17T09:39:05.281Z,0.63
2023-02-17T09:41:41.770Z,1.00
2023-02-17T09:44:20.761Z,1.17
2023-02-17T09:47:13.423Z,0.80
2023-02-17T09:49:45.471Z,0.87
2023-02-17T09:52:20.564Z,0.80
2023-02-17T09:55:00.841Z,1.00
2023-02-17T09:57:32.478Z,1.17
2023-02-17T10:00:08.794Z,1.08
2023-02-17T10:02:50.590Z,0.90
2023-02-17T10:05:23.132Z,0.85
2023-02-17T10:07:57.486Z,0.88
2023-02-17T10:10:34.500Z,0.95
2023-02-17T10:13:03.284Z,0.70
2023-02-17T10:15:36.575Z,0.82
2023-02-17T10:18:27.978Z,1.05
2023-02-17T10:21:08.454Z,1.35
2023-02-17T10:23:35.802Z,1.58
2023-02-17T10:26:33.144Z,0.70
2023-02-17T10:29:14.559Z,0.63
2023-02-17T10:31:57.559Z,0.50
2023-02-17T10:34:41.922Z,0.63
2023-02-17T10:37:33.484Z,0.50
2023-02-17T10:40:03.899Z,0.70
2023-02-17T10:42:38.192Z,0.60
2023-02-17T10:45:43.427Z,0.50
2023-02-17T10:48:25.069Z,0.90
2023-02-17T10:51:06.030Z,0.47
2023-02-17T10:53:44.274Z,1.33
2023-02-17T10:56:29.683Z,0.70
2023-02-17T10:59:08.818Z,0.73
2023-02-17T11:01:37.990Z,0.82
2023-02-17T11:04:14.031Z,0.80
2023-02-17T11:06:59.117Z,0.60
2023-02-17T11:09:35.653Z,0.70
2023-02-17T11:12:12.796Z,0.63
2023-02-17T11:14:52.588Z,0.70
2023-02-17T11:17:30.033Z,0.60
2023-02-17T11:20:05.554Z,0.52
2023-02-17T11:22:41.188Z,1.13
2023-02-17T11:25:22.255Z,0.60
2023-02-17T11:27:58.451Z,0.80
2023-02-17T11:30:29.042Z,0.43
2023-02-17T11:32:56.913Z,0.43
2023-02-17T11:35:29.872Z,1.00
2023-02-17T11:38:10.586Z,0.50
2023-02-17T11:40:38.539Z,0.70
2023-02-17T11:43:06.691Z,0.70
2023-02-17T11:46:11.315Z,0.70
2023-02-17T11:48:50.324Z,0.70
2023-02-17T11:51:21.030Z,0.80
2023-02-17T11:54:19.359Z,0.40
2023-02-17T11:57:05.208Z,0.60
2023-02-17T11:59:50.523Z,0.50
2023-02-17T12:02:43.110Z,0.52
2023-02-17T12:05:26.347Z,0.90
2023-02-17T12:08:22.107Z,0.52
2023-02-17T12:11:10.740Z,0.70
2023-02-17T12:13:43.965Z,0.63
2023-02-17T12:16:46.197Z,0.57
2023-02-17T12:19:37.041Z,0.30
2023-02-17T12:22:07.679Z,0.38
2023-02-17T12:24:41.496Z,0.50
2023-02-17T12:27:33.087Z,0.55
2023-02-17T12:30:41.897Z,0.57
2023-02-17T12:33:47.930Z,0.57
2023-02-17T12:36:17.682Z,0.70
2023-02-17T12:38:53.190Z,0.70
2023-02-17T12:41:25.775Z,0.70
2023-02-17T12:44:01.925Z,0.55
2023-02-17T12:46:44.260Z,0.65
2023-02-17T12:49:28.062Z,0.60
2023-02-17T12:52:08.552Z,0.75
2023-02-17T12:55:03.007Z,0.60
2023-02-17T12:57:57.077Z,0.93
2023-02-17T13:00:38.568Z,1.05
2023-02-17T13:03:14.085Z,0.85
2023-02-17T13:05:57.280Z,0.85
2023-02-17T13:08:40.019Z,0.55
2023-02-17T13:11:11.668Z,0.50
2023-02-17T13:13:39.454Z,1.83
2023-02-17T13:16:11.321Z,0.90
2023-02-17T13:18:44.009Z,0.93
2023-02-17T13:21:20.610Z,0.70
2023-02-17T13:24:07.451Z,0.70
2023-02-17T13:26:40.842Z,0.90
2023-02-17T13:29:17.932Z,0.80
2023-02-17T13:31:59.037Z,0.73
2023-02-17T13:34:32.333Z,0.70
2023-02-17T13:37:03.423Z,0.90
2023-02-17T13:39:34.329Z,0.75
2023-02-17T13:42:01.836Z,0.60
2023-02-17T13:44:30.998Z,0.90
2023-02-17T13:47:05.260Z,1.00
2023-02-17T13:49:35.078Z,0.77
2023-02-17T13:52:22.043Z,0.70
2023-02-17T13:54:59.178Z,0.80
2023-02-17T13:57:29.394Z,0.65
2023-02-17T14:00:18.440Z,0.90
2023-02-17T14:02:59.010Z,0.93
2023-02-17T14:05:47.042Z,0.80
2023-02-17T14:08:30.704Z,0.80
2023-02-17T14:11:02.019Z,0.77
2023-02-17T14:13:29.538Z,0.80
2023-02-17T14:15:59.249Z,0.60
2023-02-17T14:18:39.615Z,0.73
2023-02-17T14:21:23.091Z,0.90
2023-02-17T14:23:52.986Z,0.93
2023-02-17T14:26:36.811Z,0.88
2023-02-17T14:29:06.959Z,0.57
2023-02-17T14:31:49.190Z,0.70
2023-02-17T14:34:31.058Z,0.60
2023-02-17T14:37:18.739Z,0.50
2023-02-17T14:39:46.027Z,0.68
2023-02-17T14:42:14.407Z,0.40
2023-02-17T14:44:42.592Z,1.05
2023-02-17T14:47:09.962Z,0.70
2023-02-17T14:49:37.088Z,0.70
2023-02-17T14:52:23.419Z,0.60
2023-02-17T14:54:51.357Z,0.88
2023-02-17T14:57:23.893Z,0.80
2023-02-17T14:59:56.857Z,0.88
2023-02-17T15:04:51.628Z,0.85
2023-02-17T15:07:19.470Z,1.10
2023-02-17T15:09:48.050Z,0.68
2023-02-17T15:12:18.151Z,0.88
2023-02-17T15:14:47.183Z,0.82
2023-02-17T15:17:15.550Z,1.08
2023-02-17T15:19:45.847Z,1.02
2023-02-17T15:22:14.396Z,1.13
2023-02-17T15:24:41.648Z,1.00
2023-02-17T15:27:13.951Z,1.00
2023-02-17T15:29:41.677Z,0.70
2023-02-17T15:32:18.960Z,0.93
2023-02-17T15:34:46.615Z,1.00
2023-02-17T15:37:13.964Z,1.00
2023-02-17T15:39:41.124Z,1.08
2023-02-17T15:42:13.850Z,0.80
2023-02-17T15:44:49.959Z,0.80
2023-02-17T15:47:19.919Z,1.05
2023-02-17T15:49:47.110Z,1.05
2023-02-17T15:52:15.092Z,0.90
2023-02-17T15:54:42.947Z,1.00
2023-02-17T15:57:23.461Z,0.73
2023-02-17T15:59:51.233Z,0.80
2023-02-17T16:02:21.716Z,1.05
2023-02-17T16:04:50.214Z,1.17
2023-02-17T16:07:17.493Z,1.30
2023-02-17T16:09:44.780Z,1.20
2023-02-17T16:12:17.520Z,1.27
2023-02-17T16:14:45.169Z,1.30
2023-02-17T16:17:15.924Z,1.42
2023-02-17T16:19:43.256Z,1.08
2023-02-17T16:22:10.572Z,1.10
2023-02-17T16:24:37.856Z,1.00
2023-02-17T16:27:09.493Z,1.00
2023-02-17T16:29:36.642Z,1.17
2023-02-17T16:32:04.136Z,1.13
2023-02-17T16:34:33.424Z,1.58
2023-02-17T16:37:12.573Z,1.23
2023-02-17T16:39:40.041Z,1.10
2023-02-17T16:42:09.625Z,1.88
2023-02-17T16:44:36.746Z,1.48
2023-02-17T16:47:06.161Z,1.10
2023-02-17T16:49:38.999Z,1.75
2023-02-17T16:52:26.894Z,1.10
2023-02-17T16:54:54.590Z,1.60
2023-02-17T16:57:22.129Z,1.38
2023-02-17T16:59:49.290Z,1.42
